Time;durP1;ratioP1;P1;durP2;ratioP2;P2;SDS_P1;SDS_P2;PMS_P1;PMS_P2;Temp;Humidity;BMP_temperature;BMP_pressure;BME280_temperature;BME280_humidity;BME280_pressure;Samples;Min_cycle;Max_cycle;Signal;HPM_P1;HPM_P2
2021/07/28 00:00:20;;;;;;;2.00;1.65;;;18.60;90.10;;;;;;4975521;28;20023;-71
2021/07/28 00:02:48;;;;;;;3.40;1.90;;;18.80;89.10;;;;;;4975444;28;20019;-70
2021/07/28 00:05:15;;;;;;;2.08;1.88;;;18.90;88.30;;;;;;4974048;28;20237;-69
2021/07/28 00:07:43;;;;;;;2.25;1.90;;;19.00;89.10;;;;;;4975818;28;20038;-72
2021/07/28 00:10:11;;;;;;;2.78;2.40;;;19.10;88.80;;;;;;4975349;28;20550;-71
2021/07/28 00:12:38;;;;;;;3.38;2.10;;;19.30;88.50;;;;;;4975145;28;20039;-71
2021/07/28 00:15:07;;;;;;;2.50;2.30;;;19.40;87.20;;;;;;4973891;28;20137;-73
2021/07/28 00:17:44;;;;;;;2.50;2.30;;;19.50;85.60;;;;;;4975141;28;20019;-71
2021/07/28 00:20:19;;;;;;;3.40;2.03;;;19.70;85.20;;;;;;4975354;28;20022;-71
2021/07/28 00:25:35;;;;;;;2.10;1.90;;;20.10;83.90;;;;;;4975243;28;20030;-72
2021/07/28 00:28:04;;;;;;;2.80;1.90;;;20.20;83.80;;;;;;4975123;28;20376;-72
2021/07/28 00:30:32;;;;;;;2.33;2.13;;;20.40;83.00;;;;;;4973791;28;20102;-73
2021/07/28 00:33:00;;;;;;;2.67;1.83;;;20.50;81.80;;;;;;4974935;28;20030;-73
2021/07/28 00:35:27;;;;;;;2.25;2.05;;;20.60;82.00;;;;;;4974351;28;20027;-72
2021/07/28 00:37:56;;;;;;;4.50;2.10;;;20.70;81.40;;;;;;4976316;28;20015;-73
2021/07/28 00:40:23;;;;;;;3.70;1.92;;;20.80;80.70;;;;;;4975646;28;20015;-72
2021/07/28 00:42:51;;;;;;;4.40;2.10;;;20.90;79.80;;;;;;4976334;28;20026;-74
2021/07/28 00:45:18;;;;;;;2.38;2.00;;;21.00;80.80;;;;;;4975557;28;20553;-72
2021/07/28 00:47:48;;;;;;;2.05;1.90;;;21.00;79.80;;;;;;4975679;28;20115;-70
2021/07/28 00:50:15;;;;;;;1.80;1.70;;;21.10;78.20;;;;;;4975516;28;20439;-71
2021/07/28 00:52:48;;;;;;;1.92;1.63;;;21.20;79.70;;;;;;4974059;28;20042;-72
2021/07/28 00:55:16;;;;;;;2.35;1.80;;;21.30;78.60;;;;;;4975171;28;20031;-72
2021/07/28 00:57:43;;;;;;;1.83;1.70;;;21.30;79.30;;;;;;4975262;28;20034;-72
2021/07/28 01:00:11;;;;;;;2.75;2.15;;;21.30;77.90;;;;;;4975424;28;20031;-72
2021/07/28 01:02:39;;;;;;;2.25;1.70;;;21.30;78.90;;;;;;4975279;28;20023;-72
2021/07/28 01:05:07;;;;;;;2.20;1.65;;;21.30;77.50;;;;;;4974156;28;20125;-72
2021/07/28 01:07:34;;;;;;;2.50;1.55;;;21.30;78.50;;;;;;4975165;28;20573;-72
2021/07/28 01:10:02;;;;;;;5.68;2.28;;;21.40;79.10;;;;;;4975413;28;20027;-75
2021/07/28 01:12:31;;;;;;;1.88;1.60;;;21.40;79.10;;;;;;4975364;28;20495;-72
2021/07/28 01:14:58;;;;;;;2.65;1.60;;;21.50;79.50;;;;;;4975036;28;20106;-72
2021/07/28 01:17:25;;;;;;;3.78;1.63;;;21.50;77.80;;;;;;4974241;28;20074;-72
2021/07/28 01:19:58;;;;;;;2.75;1.73;;;21.40;78.00;;;;;;4974338;28;20037;-72
2021/07/28 01:22:26;;;;;;;3.40;1.80;;;21.50;78.60;;;;;;4973952;28;20026;-72
2021/07/28 01:24:53;;;;;;;2.80;1.80;;;21.60;78.30;;;;;;4974244;28;20114;-71
2021/07/28 01:27:21;;;;;;;1.65;1.55;;;21.60;78.70;;;;;;4974180;28;20033;-71
2021/07/28 01:29:48;;;;;;;2.50;1.60;;;21.70;78.60;;;;;;4972989;28;20027;-72
2021/07/28 01:32:15;;;;;;;1.70;1.33;;;21.70;78.50;;;;;;4974271;28;20439;-73
2021/07/28 01:34:45;;;;;;;2.00;1.52;;;21.80;78.70;;;;;;4974113;28;20030;-73
2021/07/28 01:37:14;;;;;;;2.88;1.73;;;21.80;77.30;;;;;;4972743;28;20037;-72
2021/07/28 01:39:42;;;;;;;1.90;1.80;;;21.80;78.30;;;;;;4972767;28;20110;-71
2021/07/28 01:42:09;;;;;;;2.00;1.65;;;21.90;77.80;;;;;;4972797;28;20081;-71
2021/07/28 01:44:38;;;;;;;2.05;1.83;;;21.90;77.80;;;;;;4972558;28;20031;-72
2021/07/28 01:47:05;;;;;;;2.10;2.00;;;22.00;78.70;;;;;;4974095;28;20030;-73
2021/07/28 01:49:32;;;;;;;2.15;2.00;;;22.10;78.80;;;;;;4974019;28;20062;-71
2021/07/28 01:52:00;;;;;;;2.35;1.90;;;22.20;79.10;;;;;;4974133;28;20031;-72
2021/07/28 01:54:27;;;;;;;2.47;2.10;;;22.20;77.80;;;;;;4973841;28;20507;-73
2021/07/28 01:56:54;;;;;;;2.28;1.85;;;22.20;77.00;;;;;;4973957;28;20015;-72
2021/07/28 01:59:23;;;;;;;2.30;2.10;;;22.20;77.50;;;;;;4974073;28;20027;-74
2021/07/28 02:01:50;;;;;;;2.20;2.10;;;22.30;78.20;;;;;;4974037;28;20435;-72
2021/07/28 02:04:18;;;;;;;1.95;1.80;;;22.40;77.30;;;;;;4972706;28;20030;-73
2021/07/28 02:06:45;;;;;;;2.70;1.85;;;22.30;76.90;;;;;;4973938;28;20105;-74
2021/07/28 02:09:12;;;;;;;3.67;2.13;;;22.40;76.50;;;;;;4973887;28;20019;-71
2021/07/28 02:11:39;;;;;;;2.47;2.10;;;22.40;77.70;;;;;;4973588;28;20046;-73
2021/07/28 02:14:08;;;;;;;2.33;2.13;;;22.50;77.50;;;;;;4972105;28;20027;-72
2021/07/28 02:16:35;;;;;;;2.67;2.47;;;22.50;77.60;;;;;;4973844;28;20023;-72
2021/07/28 02:19:03;;;;;;;2.13;1.98;;;22.60;77.80;;;;;;4972362;28;20026;-72
2021/07/28 02:21:30;;;;;;;2.47;1.90;;;22.70;77.50;;;;;;4973709;28;20023;-72
2021/07/28 02:23:57;;;;;;;2.00;1.75;;;22.70;76.90;;;;;;4973718;28;20027;-71
2021/07/28 02:26:24;;;;;;;2.58;1.70;;;22.80;77.90;;;;;;4973736;28;20047;-73
2021/07/28 02:28:52;;;;;;;3.10;1.90;;;22.80;77.60;;;;;;4972258;28;20109;-73
2021/07/28 02:31:19;;;;;;;1.95;1.85;;;22.80;77.20;;;;;;4973571;28;20023;-73
2021/07/28 02:33:47;;;;;;;2.22;2.00;;;22.90;77.70;;;;;;4973640;28;20085;-73
2021/07/28 02:36:14;;;;;;;2.25;2.10;;;22.90;78.10;;;;;;4977132;28;20051;-73
2021/07/28 02:38:41;;;;;;;1.70;1.60;;;23.00;78.20;;;;;;4975696;28;20031;-74
2021/07/28 02:41:09;;;;;;;2.45;1.88;;;23.10;78.20;;;;;;4977003;28;20022;-74
2021/07/28 02:43:36;;;;;;;3.40;2.00;;;23.30;77.60;;;;;;4977161;28;20033;-74
2021/07/28 02:46:03;;;;;;;2.78;2.00;;;23.50;76.50;;;;;;4975888;28;20035;-74
2021/07/28 02:48:31;;;;;;;2.22;1.90;;;23.60;76.00;;;;;;4975519;28;20054;-74
2021/07/28 02:50:59;;;;;;;3.33;2.00;;;23.60;77.70;;;;;;4976933;28;20046;-73
2021/07/28 02:53:26;;;;;;;3.08;2.10;;;23.20;77.60;;;;;;4975774;28;20023;-73
2021/07/28 02:55:54;;;;;;;2.10;2.00;;;23.00;76.60;;;;;;4976755;28;20062;-74
2021/07/28 02:58:21;;;;;;;2.40;2.20;;;22.90;76.50;;;;;;4976958;28;20027;-74
2021/07/28 03:00:48;;;;;;;2.03;1.90;;;23.10;77.20;;;;;;4976757;28;20029;-74
2021/07/28 03:03:16;;;;;;;2.08;1.90;;;23.30;78.20;;;;;;4975448;28;20122;-73
2021/07/28 03:05:43;;;;;;;2.28;2.17;;;23.50;75.90;;;;;;4976765;28;20033;-73
2021/07/28 03:08:11;;;;;;;2.55;2.15;;;23.60;76.10;;;;;;4976902;28;20514;-73
2021/07/28 03:10:38;;;;;;;2.70;2.50;;;23.70;76.50;;;;;;4976624;28;20167;-73
2021/07/28 03:13:06;;;;;;;2.88;2.45;;;23.80;74.60;;;;;;4976243;28;20097;-72
2021/07/28 03:15:33;;;;;;;3.33;2.03;;;23.80;75.30;;;;;;4976642;28;20395;-72
2021/07/28 03:18:01;;;;;;;2.83;2.30;;;24.00;75.20;;;;;;4976421;28;20026;-72
2021/07/28 03:20:29;;;;;;;3.47;2.10;;;24.00;75.40;;;;;;4976462;28;20059;-72
2021/07/28 03:22:56;;;;;;;3.13;1.95;;;24.00;74.50;;;;;;4976293;28;20468;-72
2021/07/28 03:25:23;;;;;;;4.60;2.00;;;24.00;74.50;;;;;;4974963;28;20161;-73
2021/07/28 03:27:51;;;;;;;4.43;2.17;;;24.00;74.40;;;;;;4976214;28;20027;-73
2021/07/28 03:30:18;;;;;;;2.30;2.10;;;24.00;73.90;;;;;;4976303;28;20023;-73
2021/07/28 03:32:45;;;;;;;2.10;2.00;;;24.00;73.40;;;;;;4976574;28;20033;-74
2021/07/28 03:35:13;;;;;;;2.25;2.10;;;23.90;74.60;;;;;;4976157;28;20403;-74
2021/07/28 03:37:40;;;;;;;2.65;2.30;;;23.90;76.10;;;;;;4975910;28;20463;-73
2021/07/28 03:40:08;;;;;;;2.33;2.22;;;23.90;75.30;;;;;;4976213;28;20022;-75
2021/07/28 03:42:35;;;;;;;4.60;2.50;;;23.80;75.20;;;;;;4974865;28;20431;-73
2021/07/28 03:45:03;;;;;;;3.25;2.85;;;24.00;74.90;;;;;;4975454;28;20110;-75
2021/07/28 03:47:30;;;;;;;3.17;2.83;;;24.00;74.00;;;;;;4976047;28;20034;-76
2021/07/28 03:49:57;;;;;;;2.47;2.38;;;24.00;74.50;;;;;;4976581;28;20452;-76
2021/07/28 03:52:25;;;;;;;2.50;2.30;;;23.90;74.50;;;;;;4976015;28;20101;-76
2021/07/28 03:54:52;;;;;;;2.60;2.40;;;23.90;74.50;;;;;;4974635;28;20089;-75
2021/07/28 03:57:20;;;;;;;3.10;2.70;;;24.00;74.60;;;;;;4975643;28;20023;-73
2021/07/28 03:59:47;;;;;;;2.95;2.40;;;23.90;73.60;;;;;;4974229;28;20027;-74
2021/07/28 04:02:15;;;;;;;3.03;2.78;;;23.80;73.60;;;;;;4975588;28;20057;-74
2021/07/28 04:04:42;;;;;;;2.75;2.55;;;23.80;72.90;;;;;;4974099;28;20037;-75
2021/07/28 04:07:11;;;;;;;2.60;2.50;;;24.10;72.00;;;;;;4975457;28;20033;-74
2021/07/28 04:09:39;;;;;;;2.60;2.40;;;24.00;72.10;;;;;;4974107;28;20118;-75
2021/07/28 04:12:07;;;;;;;2.35;2.20;;;24.00;70.80;;;;;;4975212;28;20085;-74
2021/07/28 04:14:34;;;;;;;2.28;2.17;;;23.90;70.90;;;;;;4975147;28;20055;-75
2021/07/28 04:17:01;;;;;;;2.92;2.35;;;23.80;70.70;;;;;;4975360;28;20023;-75
2021/07/28 04:19:29;;;;;;;2.67;2.47;;;23.90;70.50;;;;;;4975342;28;20396;-75
2021/07/28 04:21:56;;;;;;;2.47;2.30;;;24.00;70.90;;;;;;4973909;28;20019;-75
2021/07/28 04:24:23;;;;;;;2.75;2.35;;;24.20;70.50;;;;;;4975070;28;20022;-74
2021/07/28 04:26:51;;;;;;;2.60;2.45;;;24.20;70.40;;;;;;4973634;28;20110;-75
2021/07/28 04:29:18;;;;;;;2.95;2.75;;;24.20;72.00;;;;;;4973684;28;20041;-75
2021/07/28 04:31:45;;;;;;;2.60;2.40;;;24.20;71.70;;;;;;4974830;28;20511;-76
2021/07/28 04:34:13;;;;;;;2.67;2.47;;;24.40;71.20;;;;;;4973526;28;20038;-75
2021/07/28 04:36:40;;;;;;;4.65;2.80;;;24.40;71.30;;;;;;4973391;28;20022;-73
2021/07/28 04:39:07;;;;;;;2.60;2.50;;;24.30;69.40;;;;;;4973627;28;20023;-74
2021/07/28 04:41:35;;;;;;;2.55;2.35;;;24.30;70.20;;;;;;4974930;28;20023;-76
2021/07/28 04:44:02;;;;;;;2.75;2.55;;;24.20;70.00;;;;;;4975985;28;20062;-75
2021/07/28 04:46:29;;;;;;;5.60;2.10;;;24.20;69.20;;;;;;4974644;28;20042;-77
2021/07/28 04:48:57;;;;;;;2.45;2.00;;;23.80;69.90;;;;;;4976156;28;20051;-76
2021/07/28 04:51:25;;;;;;;2.00;1.90;;;23.60;70.20;;;;;;4975874;28;20066;-76
2021/07/28 04:53:53;;;;;;;2.25;2.00;;;23.40;70.80;;;;;;4975885;28;20117;-77
2021/07/28 04:56:21;;;;;;;3.40;2.10;;;23.60;70.40;;;;;;4974947;28;20019;-76
2021/07/28 04:58:48;;;;;;;2.72;2.40;;;23.80;69.10;;;;;;4975869;28;20110;-76
2021/07/28 05:01:15;;;;;;;2.40;2.20;;;23.90;68.70;;;;;;4975978;28;20023;-76
2021/07/28 05:03:43;;;;;;;2.22;2.13;;;24.00;69.40;;;;;;4974517;28;20098;-77
2021/07/28 05:06:10;;;;;;;3.20;2.20;;;24.00;69.20;;;;;;4976631;28;20034;-76
2021/07/28 05:08:37;;;;;;;3.28;2.20;;;24.10;70.40;;;;;;4974773;28;20408;-76
2021/07/28 05:11:05;;;;;;;2.22;2.13;;;24.10;68.20;;;;;;4975975;28;20035;-77
2021/07/28 05:13:32;;;;;;;2.45;2.03;;;24.10;68.70;;;;;;4986496;28;20211;-78
2021/07/28 05:15:59;;;;;;;2.75;2.22;;;24.00;68.40;;;;;;4983845;28;20027;-77
2021/07/28 05:18:29;;;;;;;2.22;2.13;;;23.90;69.30;;;;;;4979217;28;20074;-77
2021/07/28 05:20:58;;;;;;;2.80;2.50;;;23.80;69.40;;;;;;4976479;28;20023;-78
2021/07/28 05:23:25;;;;;;;2.50;2.30;;;23.50;69.70;;;;;;4976820;28;20054;-76
2021/07/28 05:25:52;;;;;;;3.65;2.42;;;23.30;70.00;;;;;;4974516;28;20062;-76
2021/07/28 05:28:20;;;;;;;2.55;2.30;;;23.10;71.50;;;;;;4974500;28;20038;-77
2021/07/28 05:30:47;;;;;;;4.55;2.65;;;22.90;70.20;;;;;;4974089;28;20395;-76
2021/07/28 05:33:14;;;;;;;3.80;2.70;;;22.60;70.70;;;;;;4975406;28;20460;-76
2021/07/28 05:35:47;;;;;;;2.80;2.50;;;22.50;70.80;;;;;;4973628;28;20121;-76
2021/07/28 05:38:15;;;;;;;3.33;2.50;;;22.40;71.20;;;;;;4975696;28;20443;-76
2021/07/28 05:40:43;;;;;;;2.92;2.60;;;22.20;71.60;;;;;;4973761;28;20030;-75
2021/07/28 05:43:10;;;;;;;2.90;2.60;;;22.10;71.60;;;;;;4975725;28;20563;-74
2021/07/28 05:45:37;;;;;;;4.97;2.97;;;21.80;72.10;;;;;;4973676;28;20166;-73
2021/07/28 05:48:05;;;;;;;3.30;2.67;;;21.70;72.50;;;;;;4973260;28;20088;-76
2021/07/28 05:50:32;;;;;;;3.25;3.05;;;21.60;72.90;;;;;;4973334;28;20122;-76
2021/07/28 05:52:59;;;;;;;3.00;2.60;;;21.50;73.10;;;;;;4974543;28;20030;-76
2021/07/28 05:55:27;;;;;;;3.70;2.53;;;21.30;74.10;;;;;;4972822;28;20034;-75
2021/07/28 05:57:55;;;;;;;3.00;2.70;;;21.20;74.20;;;;;;4974400;28;20027;-75
2021/07/28 06:00:22;;;;;;;2.88;2.60;;;21.10;74.50;;;;;;4974235;28;20081;-75
2021/07/28 06:02:50;;;;;;;2.40;2.30;;;21.10;74.50;;;;;;4973971;28;20027;-75
2021/07/28 06:05:17;;;;;;;2.58;2.30;;;20.90;75.20;;;;;;4973784;28;20109;-74
2021/07/28 06:07:45;;;;;;;3.15;2.40;;;20.80;75.30;;;;;;4975389;28;20420;-74
2021/07/28 06:10:14;;;;;;;3.60;2.30;;;20.70;75.20;;;;;;4977554;28;20109;-75
2021/07/28 06:12:41;;;;;;;3.85;2.45;;;20.60;76.60;;;;;;4975928;28;20054;-75
2021/07/28 06:15:09;;;;;;;2.70;2.50;;;20.60;76.10;;;;;;4977301;28;20059;-75
2021/07/28 06:17:37;;;;;;;2.28;2.10;;;20.50;76.50;;;;;;4977192;28;20019;-74
2021/07/28 06:20:05;;;;;;;2.60;2.40;;;20.40;76.70;;;;;;4975954;28;20023;-74
2021/07/28 06:22:32;;;;;;;2.60;2.40;;;20.40;76.60;;;;;;4977503;28;20030;-74
2021/07/28 06:25:00;;;;;;;2.63;2.30;;;20.30;76.90;;;;;;4977917;28;20493;-75
2021/07/28 06:27:27;;;;;;;2.67;2.58;;;20.30;77.30;;;;;;4976420;28;20054;-75
2021/07/28 06:29:54;;;;;;;3.28;2.50;;;20.30;77.20;;;;;;4977271;28;20046;-75
2021/07/28 06:32:22;;;;;;;2.60;2.40;;;20.30;77.30;;;;;;4978493;28;20483;-77
2021/07/28 06:34:49;;;;;;;2.20;2.10;;;20.20;77.50;;;;;;4978116;28;20031;-76
2021/07/28 06:37:17;;;;;;;2.40;2.30;;;20.20;77.50;;;;;;4977275;28;20025;-74
2021/07/28 06:39:44;;;;;;;2.38;2.17;;;20.20;77.70;;;;;;4977223;28;20019;-75
2021/07/28 06:42:11;;;;;;;2.42;2.30;;;20.10;77.80;;;;;;4977105;28;20058;-75
2021/07/28 06:44:39;;;;;;;2.45;2.20;;;20.10;77.90;;;;;;4976945;28;20186;-74
2021/07/28 06:47:06;;;;;;;2.28;2.10;;;20.10;78.10;;;;;;4975658;28;20031;-75
2021/07/28 06:49:33;;;;;;;2.50;2.30;;;20.00;78.20;;;;;;4976654;28;20027;-74
2021/07/28 06:52:01;;;;;;;2.30;2.20;;;20.00;78.60;;;;;;4976756;28;20027;-74
2021/07/28 06:54:28;;;;;;;2.67;2.45;;;20.00;78.70;;;;;;4979018;28;20039;-78
2021/07/28 06:56:55;;;;;;;2.67;2.47;;;19.90;78.70;;;;;;4979255;28;20439;-77
2021/07/28 06:59:22;;;;;;;2.75;2.45;;;19.90;79.30;;;;;;4976757;28;20034;-74
2021/07/28 07:01:50;;;;;;;2.47;2.28;;;19.80;78.50;;;;;;4976763;28;20062;-75
2021/07/28 07:04:17;;;;;;;2.38;2.28;;;19.80;79.00;;;;;;4976468;28;20025;-74
2021/07/28 07:06:45;;;;;;;2.30;2.10;;;19.70;79.30;;;;;;4976395;28;20451;-75
2021/07/28 07:09:12;;;;;;;2.88;2.30;;;19.60;79.80;;;;;;4976383;28;20218;-76
2021/07/28 07:11:39;;;;;;;3.80;2.30;;;19.50;80.60;;;;;;4976192;28;20113;-75
2021/07/28 07:14:07;;;;;;;2.28;2.17;;;19.40;80.70;;;;;;4975135;28;20404;-75
2021/07/28 07:16:34;;;;;;;2.65;2.15;;;19.30;81.10;;;;;;4976592;28;20047;-74
2021/07/28 07:19:01;;;;;;;1.90;1.80;;;19.20;81.10;;;;;;4974400;28;20038;-75
2021/07/28 07:21:28;;;;;;;2.40;2.10;;;19.10;81.80;;;;;;4975083;28;20073;-74
2021/07/28 07:23:56;;;;;;;2.40;1.90;;;19.10;82.20;;;;;;4975153;28;20027;-74
2021/07/28 07:26:23;;;;;;;2.00;1.90;;;18.90;83.20;;;;;;4976367;28;20022;-74
2021/07/28 07:28:51;;;;;;;1.90;1.80;;;18.90;82.50;;;;;;4976285;28;20030;-75
2021/07/28 07:31:18;;;;;;;2.10;2.00;;;18.90;83.60;;;;;;4976103;28;20022;-75
2021/07/28 07:33:45;;;;;;;5.00;2.33;;;18.90;82.90;;;;;;4975978;28;20077;-74
2021/07/28 07:36:17;;;;;;;2.80;2.10;;;18.80;83.60;;;;;;4975852;28;20487;-75
2021/07/28 07:38:45;;;;;;;2.50;2.30;;;18.70;84.00;;;;;;4976077;28;20023;-75
2021/07/28 07:41:12;;;;;;;2.00;1.90;;;18.70;84.60;;;;;;4974640;28;20066;-75
2021/07/28 07:43:39;;;;;;;1.90;1.80;;;18.60;84.40;;;;;;4976096;28;20027;-75
2021/07/28 07:46:07;;;;;;;2.45;2.25;;;18.50;85.10;;;;;;4975970;28;20158;-74
2021/07/28 07:48:35;;;;;;;2.30;2.10;;;18.50;85.40;;;;;;4974607;28;20054;-74
2021/07/28 07:51:02;;;;;;;2.10;1.90;;;18.40;85.70;;;;;;4974390;28;20041;-74
2021/07/28 07:53:30;;;;;;;1.75;1.65;;;18.30;86.10;;;;;;4975857;28;20031;-74
2021/07/28 07:55:58;;;;;;;3.38;1.80;;;18.20;86.50;;;;;;4975461;28;20073;-75
2021/07/28 07:58:26;;;;;;;2.47;2.10;;;18.20;86.70;;;;;;4974256;28;20089;-74
2021/07/28 08:00:53;;;;;;;2.00;1.90;;;18.10;87.00;;;;;;4975481;28;20029;-73
2021/07/28 08:03:23;;;;;;;2.47;2.28;;;18.10;87.20;;;;;;4975477;28;20485;-74
2021/07/28 08:05:50;;;;;;;2.60;2.40;;;18.00;87.90;;;;;;4975409;28;20034;-73
2021/07/28 08:08:18;;;;;;;2.50;2.30;;;18.00;88.60;;;;;;4974128;28;20063;-74
2021/07/28 08:10:45;;;;;;;3.05;2.75;;;17.90;88.80;;;;;;4975209;28;20022;-73
2021/07/28 08:13:12;;;;;;;2.53;2.42;;;17.90;88.90;;;;;;4975129;28;20078;-74
2021/07/28 08:15:40;;;;;;;3.40;2.40;;;17.80;89.60;;;;;;4975163;28;20106;-76
2021/07/28 08:18:09;;;;;;;2.50;2.30;;;17.80;90.10;;;;;;4975356;28;20110;-73
2021/07/28 08:20:37;;;;;;;2.42;2.22;;;17.70;90.20;;;;;;4975270;28;20102;-74
2021/07/28 08:23:05;;;;;;;2.08;1.98;;;17.60;90.40;;;;;;4975415;28;20475;-74
2021/07/28 08:25:32;;;;;;;4.00;2.20;;;17.60;90.70;;;;;;4975083;28;20019;-74
2021/07/28 08:27:59;;;;;;;2.70;2.10;;;17.60;90.90;;;;;;4975119;28;20054;-74
2021/07/28 08:30:27;;;;;;;2.05;1.95;;;17.60;90.90;;;;;;4974353;28;20035;-74
2021/07/28 08:32:54;;;;;;;2.60;2.42;;;17.60;91.00;;;;;;4974482;28;20026;-75
2021/07/28 08:35:21;;;;;;;2.75;2.40;;;17.50;91.30;;;;;;4974836;28;20483;-73
2021/07/28 08:37:49;;;;;;;3.03;2.40;;;17.40;91.40;;;;;;4974913;28;20105;-75
2021/07/28 08:40:17;;;;;;;2.50;2.30;;;17.50;91.20;;;;;;4974873;28;20038;-74
2021/07/28 08:42:50;;;;;;;2.88;2.67;;;17.40;91.50;;;;;;4973398;28;20121;-74
2021/07/28 08:45:18;;;;;;;4.63;2.60;;;17.40;91.10;;;;;;4974765;28;20030;-74
2021/07/28 08:47:46;;;;;;;2.30;2.20;;;17.30;91.20;;;;;;4973530;28;20083;-74
2021/07/28 08:50:15;;;;;;;2.67;2.47;;;17.30;91.10;;;;;;4974660;28;20102;-73
2021/07/28 08:52:42;;;;;;;2.50;2.40;;;17.20;91.50;;;;;;4974509;28;20034;-72
2021/07/28 08:55:10;;;;;;;2.63;2.42;;;17.10;91.50;;;;;;4973204;28;20077;-72
2021/07/28 08:57:38;;;;;;;2.75;2.55;;;17.10;91.40;;;;;;4974637;28;20022;-74
2021/07/28 09:00:09;;;;;;;2.55;2.40;;;17.10;91.50;;;;;;4974647;28;20030;-73
2021/07/28 09:02:36;;;;;;;3.22;2.50;;;17.10;91.90;;;;;;4974378;28;20023;-75
2021/07/28 09:05:04;;;;;;;2.58;2.33;;;17.10;91.70;;;;;;4972896;28;20030;-75
2021/07/28 09:07:39;;;;;;;4.22;2.30;;;17.00;91.90;;;;;;4972942;28;20038;-74
2021/07/28 09:10:07;;;;;;;3.97;2.20;;;16.90;92.00;;;;;;4974455;28;20034;-74
2021/07/28 09:12:36;;;;;;;2.30;2.20;;;16.80;92.20;;;;;;4974083;28;20129;-74
2021/07/28 09:15:07;;;;;;;2.95;2.20;;;16.80;92.30;;;;;;4974144;28;20059;-74
2021/07/28 09:17:36;;;;;;;2.33;2.00;;;16.80;92.60;;;;;;4974311;28;20082;-74
2021/07/28 09:20:04;;;;;;;3.15;2.20;;;16.70;92.70;;;;;;4972991;28;20123;-74
2021/07/28 09:22:39;;;;;;;2.20;2.10;;;16.70;93.00;;;;;;4974150;28;20018;-73
2021/07/28 09:25:09;;;;;;;2.40;2.30;;;16.60;93.00;;;;;;4974281;28;20496;-74
2021/07/28 09:27:46;;;;;;;2.15;2.00;;;16.50;93.10;;;;;;4972792;28;20065;-73
2021/07/28 09:30:33;;;;;;;2.22;2.05;;;16.50;93.40;;;;;;4972742;28;20034;-74
2021/07/28 09:33:09;;;;;;;2.42;1.90;;;16.40;93.80;;;;;;4974245;28;20042;-74
2021/07/28 09:35:48;;;;;;;3.03;2.10;;;16.40;93.80;;;;;;4973845;28;20113;-73
2021/07/28 09:38:36;;;;;;;2.38;2.15;;;16.30;94.70;;;;;;4974122;28;20050;-74
2021/07/28 09:41:26;;;;;;;2.22;2.03;;;16.30;93.80;;;;;;4974342;28;20025;-74
2021/07/28 09:43:58;;;;;;;2.15;2.00;;;16.30;94.20;;;;;;4977799;28;20023;-75
2021/07/28 09:46:37;;;;;;;2.50;1.90;;;16.20;94.20;;;;;;4978100;28;20023;-77
2021/07/28 09:49:06;;;;;;;1.80;1.70;;;16.20;94.70;;;;;;4978141;28;20026;-74
2021/07/28 09:51:39;;;;;;;2.17;1.65;;;16.10;94.50;;;;;;4976207;28;20150;-75
2021/07/28 09:54:09;;;;;;;2.47;1.90;;;16.10;94.50;;;;;;4977963;28;20479;-75
2021/07/28 09:56:44;;;;;;;2.10;1.90;;;16.00;94.70;;;;;;4977711;28;20022;-74
2021/07/28 09:59:12;;;;;;;1.90;1.70;;;16.00;94.90;;;;;;4977811;28;20055;-75
2021/07/28 10:01:41;;;;;;;2.38;2.17;;;16.00;94.90;;;;;;4977823;28;20535;-75
2021/07/28 10:04:10;;;;;;;2.28;1.90;;;15.90;95.10;;;;;;4976341;28;20475;-73
2021/07/28 10:06:47;;;;;;;2.35;2.00;;;15.90;95.30;;;;;;4976282;28;20023;-73
2021/07/28 10:09:16;;;;;;;2.10;2.00;;;15.80;95.50;;;;;;4976193;28;20042;-73
2021/07/28 10:11:48;;;;;;;2.25;2.15;;;15.80;95.50;;;;;;4977627;28;20047;-73
2021/07/28 10:14:18;;;;;;;3.40;2.33;;;15.80;95.60;;;;;;4977482;28;20387;-73
2021/07/28 10:16:46;;;;;;;2.65;2.45;;;15.70;95.70;;;;;;4977743;28;20023;-73
2021/07/28 10:19:16;;;;;;;2.35;2.13;;;15.70;95.90;;;;;;4977638;28;20015;-73
2021/07/28 10:21:43;;;;;;;2.92;2.60;;;15.70;96.00;;;;;;4977268;28;20022;-73
2021/07/28 10:24:12;;;;;;;2.25;2.15;;;15.60;96.20;;;;;;4977293;28;20019;-74
2021/07/28 10:26:45;;;;;;;2.70;2.53;;;15.60;96.30;;;;;;4977241;28;20019;-73
2021/07/28 10:29:14;;;;;;;2.50;2.30;;;15.50;96.60;;;;;;4975979;28;20462;-74
2021/07/28 10:31:51;;;;;;;3.28;2.17;;;15.50;96.60;;;;;;4977155;28;20023;-73
2021/07/28 10:34:37;;;;;;;2.50;2.30;;;15.50;96.70;;;;;;4977102;28;20109;-73
2021/07/28 10:37:07;;;;;;;3.83;3.00;;;15.40;96.80;;;;;;4977318;28;20026;-74
2021/07/28 10:39:37;;;;;;;2.47;2.30;;;15.40;96.70;;;;;;4977156;28;20105;-73
2021/07/28 10:42:11;;;;;;;2.50;2.30;;;15.40;97.00;;;;;;4975978;28;20054;-73
2021/07/28 10:44:57;;;;;;;2.90;2.20;;;15.40;97.00;;;;;;4975524;28;20033;-74
2021/07/28 10:47:37;;;;;;;2.53;2.33;;;15.40;97.10;;;;;;4976849;28;20374;-73
2021/07/28 10:50:08;;;;;;;;;;;15.40;97.10;;;;;;4977051;28;20026;-73
2021/07/28 10:52:42;;;;;;;2.30;2.20;;;15.40;97.10;;;;;;4975314;28;20271;-73
2021/07/28 10:55:15;;;;;;;4.13;2.85;;;15.40;97.20;;;;;;4975569;28;20031;-73
2021/07/28 10:57:45;;;;;;;3.90;2.40;;;15.40;97.20;;;;;;4976665;28;20035;-75
2021/07/28 11:00:33;;;;;;;2.23;2.13;;;15.30;97.30;;;;;;4977134;28;20407;-73
2021/07/28 11:03:01;;;;;;;2.47;2.35;;;15.40;97.40;;;;;;4976646;28;20029;-73
2021/07/28 11:05:39;;;;;;;4.65;2.50;;;15.30;97.60;;;;;;4976730;28;20030;-73
2021/07/28 11:08:06;;;;;;;2.70;2.50;;;15.20;97.60;;;;;;4976667;28;20023;-73
2021/07/28 11:10:45;;;;;;;2.38;2.28;;;15.20;98.10;;;;;;4975076;28;20031;-73
2021/07/28 11:13:14;;;;;;;2.55;2.35;;;15.10;98.10;;;;;;4976252;28;20070;-73
2021/07/28 11:16:03;;;;;;;2.88;2.42;;;15.00;98.10;;;;;;4976185;28;20027;-72
2021/07/28 11:18:39;;;;;;;2.38;2.28;;;15.00;98.40;;;;;;4976397;28;20022;-73
2021/07/28 11:21:08;;;;;;;2.80;2.60;;;14.90;98.60;;;;;;4976247;28;20027;-73
2021/07/28 11:23:35;;;;;;;2.90;2.70;;;15.00;98.90;;;;;;4976232;28;20109;-75
2021/07/28 11:26:11;;;;;;;3.15;2.65;;;15.00;98.50;;;;;;4974702;28;20042;-74
2021/07/28 11:28:38;;;;;;;2.45;2.25;;;15.00;98.80;;;;;;4974736;28;20030;-74
2021/07/28 11:31:06;;;;;;;2.70;2.58;;;14.90;98.90;;;;;;4976435;28;20391;-73
2021/07/28 11:33:34;;;;;;;2.60;2.50;;;14.90;98.90;;;;;;4976509;28;20084;-73
2021/07/28 11:36:02;;;;;;;4.03;2.47;;;14.80;99.10;;;;;;4976874;28;20073;-73
2021/07/28 11:38:39;;;;;;;4.57;2.88;;;14.80;99.30;;;;;;4975959;28;20494;-72
2021/07/28 11:41:11;;;;;;;2.80;2.70;;;14.80;99.30;;;;;;4974832;28;20039;-74
2021/07/28 11:43:43;;;;;;;3.10;2.90;;;14.70;99.40;;;;;;4976261;28;20023;-73
2021/07/28 11:46:18;;;;;;;3.60;3.25;;;14.80;99.30;;;;;;4975999;28;20121;-74
2021/07/28 11:48:50;;;;;;;3.28;2.97;;;14.80;99.40;;;;;;4974678;28;20034;-73
2021/07/28 11:51:28;;;;;;;3.08;2.88;;;14.70;99.60;;;;;;4976053;28;20023;-73
2021/07/28 11:54:16;;;;;;;3.65;2.90;;;14.70;99.60;;;;;;4975710;28;20508;-73
2021/07/28 11:56:55;;;;;;;3.08;2.60;;;14.80;99.50;;;;;;4975657;28;20113;-73
2021/07/28 11:59:23;;;;;;;3.17;2.85;;;14.70;99.60;;;;;;4975663;28;20464;-73
2021/07/28 12:01:55;;;;;;;3.53;2.70;;;14.70;99.60;;;;;;4974340;28;20117;-73
2021/07/28 12:04:26;;;;;;;3.00;2.80;;;14.70;99.70;;;;;;4974284;28;20034;-75
2021/07/28 12:06:55;;;;;;;3.10;2.80;;;14.70;99.90;;;;;;4974005;28;20035;-73
2021/07/28 12:09:23;;;;;;;2.85;2.72;;;14.60;99.90;;;;;;4974105;28;20114;-74
2021/07/28 12:12:01;;;;;;;3.10;2.83;;;14.60;99.90;;;;;;4975233;28;20046;-73
2021/07/28 12:14:45;;;;;;;2.97;2.60;;;14.60;99.90;;;;;;4975208;28;20098;-73
2021/07/28 12:17:19;;;;;;;2.97;2.78;;;14.50;99.90;;;;;;4975290;28;20027;-73
2021/07/28 12:20:02;;;;;;;3.30;3.10;;;14.50;99.90;;;;;;4975381;28;20043;-73
2021/07/28 12:22:36;;;;;;;3.53;2.90;;;14.50;99.90;;;;;;4975356;28;20480;-73
2021/07/28 12:25:19;;;;;;;3.00;2.80;;;14.50;99.90;;;;;;4975235;28;20031;-74
2021/07/28 12:28:12;;;;;;;3.17;2.90;;;14.40;99.90;;;;;;4975122;28;20037;-74
2021/07/28 12:30:41;;;;;;;3.58;3.30;;;14.40;99.90;;;;;;4973832;28;20034;-73
2021/07/28 12:33:12;;;;;;;4.25;3.35;;;14.30;99.90;;;;;;4974938;28;20019;-74
2021/07/28 12:35:46;;;;;;;3.55;3.20;;;14.30;99.90;;;;;;4973393;28;20441;-73
2021/07/28 12:38:16;;;;;;;3.00;2.88;;;14.30;99.90;;;;;;4974958;28;20027;-73
2021/07/28 12:40:49;;;;;;;4.63;3.40;;;14.20;99.90;;;;;;4974752;28;20416;-73
2021/07/28 12:43:16;;;;;;;3.55;3.35;;;14.10;99.90;;;;;;4974899;28;20058;-74
2021/07/28 12:45:44;;;;;;;3.00;2.90;;;14.00;99.90;;;;;;4974843;28;20022;-73
2021/07/28 12:48:11;;;;;;;3.35;3.05;;;14.00;99.90;;;;;;4973423;28;20031;-73
2021/07/28 12:50:41;;;;;;;2.85;2.60;;;13.90;99.90;;;;;;4974874;28;20023;-75
2021/07/28 12:53:08;;;;;;;3.40;3.20;;;14.00;99.90;;;;;;4974610;28;20027;-74
2021/07/28 12:55:37;;;;;;;3.40;3.10;;;14.00;99.90;;;;;;4973468;28;20031;-73
2021/07/28 12:58:04;;;;;;;3.95;3.65;;;13.90;99.90;;;;;;4974394;28;20023;-72
2021/07/28 13:00:37;;;;;;;3.20;3.00;;;13.90;99.90;;;;;;4973199;28;20077;-74